sensor_id;sensor_type;location;lat;lon;timestamp;P1;durP1;ratioP1;P2;durP2;ratioP2
14121;SDS011;7139;48.114;11.442;2024-02-16T00:00:02;3.13;;;2.60;;
14121;SDS011;7139;48.114;11.442;2024-02-16T00:02:30;3.67;;;2.60;;
14121;SDS011;7139;48.114;11.442;2024-02-16T00:04:57;2.57;;;2.37;;
14121;SDS011;7139;48.114;11.442;2024-02-16T00:07:26;2.90;;;2.37;;
14121;SDS011;7139;48.114;11.442;2024-02-16T00:09:53;3.30;;;2.50;;
14121;SDS011;7139;48.114;11.442;2024-02-16T00:12:20;3.83;;;2.97;;
14121;SDS011;7139;48.114;11.442;2024-02-16T00:14:47;4.03;;;2.70;;
14121;SDS011;7139;48.114;11.442;2024-02-16T00:17:14;3.50;;;2.50;;
14121;SDS011;7139;48.114;11.442;2024-02-16T00:19:41;3.90;;;2.53;;
14121;SDS011;7139;48.114;11.442;2024-02-16T00:22:08;4.03;;;2.70;;
14121;SDS011;7139;48.114;11.442;2024-02-16T00:24:37;2.70;;;2.50;;
14121;SDS011;7139;48.114;11.442;2024-02-16T00:27:04;3.10;;;2.43;;
14121;SDS011;7139;48.114;11.442;2024-02-16T00:29:31;3.90;;;2.60;;
14121;SDS011;7139;48.114;11.442;2024-02-16T00:31:58;2.50;;;2.13;;
14121;SDS011;7139;48.114;11.442;2024-02-16T00:34:25;2.53;;;2.20;;
14121;SDS011;7139;48.114;11.442;2024-02-16T00:36:52;3.43;;;2.47;;
14121;SDS011;7139;48.114;11.442;2024-02-16T00:39:20;3.10;;;2.17;;
14121;SDS011;7139;48.114;11.442;2024-02-16T00:41:49;2.97;;;2.43;;
14121;SDS011;7139;48.114;11.442;2024-02-16T00:44:16;2.90;;;2.37;;
14121;SDS011;7139;48.114;11.442;2024-02-16T00:46:43;3.50;;;2.40;;
14121;SDS011;7139;48.114;11.442;2024-02-16T00:49:10;2.60;;;1.90;;
14121;SDS011;7139;48.114;11.442;2024-02-16T00:51:37;4.43;;;2.57;;
14121;SDS011;7139;48.114;11.442;2024-02-16T00:54:05;2.10;;;1.90;;
14121;SDS011;7139;48.114;11.442;2024-02-16T00:56:32;3.67;;;2.50;;
14121;SDS011;7139;48.114;11.442;2024-02-16T00:59:00;2.63;;;2.13;;
14121;SDS011;7139;48.114;11.442;2024-02-16T01:01:27;2.97;;;2.37;;
14121;SDS011;7139;48.114;11.442;2024-02-16T01:03:55;3.10;;;2.33;;
14121;SDS011;7139;48.114;11.442;2024-02-16T01:06:22;2.70;;;2.13;;
14121;SDS011;7139;48.114;11.442;2024-02-16T01:08:49;2.50;;;2.30;;
14121;SDS011;7139;48.114;11.442;2024-02-16T01:11:16;2.37;;;2.17;;
14121;SDS011;7139;48.114;11.442;2024-02-16T01:13:45;2.43;;;2.20;;
14121;SDS011;7139;48.114;11.442;2024-02-16T01:16:13;2.30;;;2.10;;
14121;SDS011;7139;48.114;11.442;2024-02-16T01:18:42;2.23;;;2.03;;
14121;SDS011;7139;48.114;11.442;2024-02-16T01:21:09;3.67;;;2.20;;
14121;SDS011;7139;48.114;11.442;2024-02-16T01:23:36;2.97;;;2.50;;
14121;SDS011;7139;48.114;11.442;2024-02-16T01:26:04;4.30;;;2.33;;
14121;SDS011;7139;48.114;11.442;2024-02-16T01:28:31;2.20;;;2.00;;
14121;SDS011;7139;48.114;11.442;2024-02-16T01:30:58;2.30;;;2.10;;
14121;SDS011;7139;48.114;11.442;2024-02-16T01:33:26;3.17;;;2.30;;
14121;SDS011;7139;48.114;11.442;2024-02-16T01:35:54;3.00;;;2.40;;
14121;SDS011;7139;48.114;11.442;2024-02-16T01:38:21;2.23;;;2.00;;
14121;SDS011;7139;48.114;11.442;2024-02-16T01:40:49;3.17;;;2.10;;
14121;SDS011;7139;48.114;11.442;2024-02-16T01:43:18;2.37;;;2.17;;
14121;SDS011;7139;48.114;11.442;2024-02-16T01:45:45;2.90;;;2.00;;
14121;SDS011;7139;48.114;11.442;2024-02-16T01:48:13;2.67;;;2.23;;
14121;SDS011;7139;48.114;11.442;2024-02-16T01:50:42;3.53;;;2.47;;
14121;SDS011;7139;48.114;11.442;2024-02-16T01:53:09;2.43;;;2.23;;
14121;SDS011;7139;48.114;11.442;2024-02-16T01:55:36;2.63;;;2.43;;
14121;SDS011;7139;48.114;11.442;2024-02-16T01:58:03;2.63;;;2.13;;
14121;SDS011;7139;48.114;11.442;2024-02-16T02:00:32;2.30;;;2.10;;
14121;SDS011;7139;48.114;11.442;2024-02-16T02:02:59;3.30;;;2.20;;
14121;SDS011;7139;48.114;11.442;2024-02-16T02:05:26;2.87;;;2.03;;
14121;SDS011;7139;48.114;11.442;2024-02-16T02:07:55;2.60;;;2.40;;
14121;SDS011;7139;48.114;11.442;2024-02-16T02:10:22;2.57;;;2.20;;
14121;SDS011;7139;48.114;11.442;2024-02-16T02:12:49;3.10;;;2.30;;
14121;SDS011;7139;48.114;11.442;2024-02-16T02:15:16;2.27;;;2.07;;
14121;SDS011;7139;48.114;11.442;2024-02-16T02:17:44;2.47;;;2.10;;
14121;SDS011;7139;48.114;11.442;2024-02-16T02:20:11;3.53;;;2.20;;
14121;SDS011;7139;48.114;11.442;2024-02-16T02:22:39;2.90;;;2.23;;
14121;SDS011;7139;48.114;11.442;2024-02-16T02:25:07;2.57;;;2.30;;
14121;SDS011;7139;48.114;11.442;2024-02-16T02:27:35;2.70;;;1.97;;
14121;SDS011;7139;48.114;11.442;2024-02-16T02:30:03;2.23;;;2.00;;
14121;SDS011;7139;48.114;11.442;2024-02-16T02:32:30;3.53;;;2.37;;
14121;SDS011;7139;48.114;11.442;2024-02-16T02:34:57;2.30;;;2.10;;
14121;SDS011;7139;48.114;11.442;2024-02-16T02:37:24;2.53;;;2.33;;
14121;SDS011;7139;48.114;11.442;2024-02-16T02:39:54;2.67;;;2.47;;
14121;SDS011;7139;48.114;11.442;2024-02-16T02:42:21;2.67;;;2.47;;
14121;SDS011;7139;48.114;11.442;2024-02-16T02:44:49;2.57;;;2.30;;
14121;SDS011;7139;48.114;11.442;2024-02-16T02:47:16;2.80;;;2.43;;
14121;SDS011;7139;48.114;11.442;2024-02-16T02:49:43;2.80;;;2.47;;
14121;SDS011;7139;48.114;11.442;2024-02-16T02:52:10;2.43;;;2.23;;
14121;SDS011;7139;48.114;11.442;2024-02-16T02:54:37;3.00;;;2.60;;
14121;SDS011;7139;48.114;11.442;2024-02-16T02:57:06;2.70;;;2.23;;
14121;SDS011;7139;48.114;11.442;2024-02-16T02:59:33;2.87;;;2.13;;
14121;SDS011;7139;48.114;11.442;2024-02-16T03:02:00;2.43;;;2.23;;
14121;SDS011;7139;48.114;11.442;2024-02-16T03:04:27;2.53;;;2.30;;
14121;SDS011;7139;48.114;11.442;2024-02-16T03:06:54;2.80;;;2.50;;
14121;SDS011;7139;48.114;11.442;2024-02-16T03:09:21;2.63;;;2.37;;
14121;SDS011;7139;48.114;11.442;2024-02-16T03:11:48;3.60;;;2.37;;
14121;SDS011;7139;48.114;11.442;2024-02-16T03:14:17;2.77;;;2.30;;
14121;SDS011;7139;48.114;11.442;2024-02-16T03:16:44;2.43;;;2.17;;
14121;SDS011;7139;48.114;11.442;2024-02-16T03:19:11;3.00;;;2.23;;
14121;SDS011;7139;48.114;11.442;2024-02-16T03:21:38;4.67;;;2.70;;
14121;SDS011;7139;48.114;11.442;2024-02-16T03:24:06;4.10;;;2.70;;
14121;SDS011;7139;48.114;11.442;2024-02-16T03:26:33;2.87;;;2.57;;
14121;SDS011;7139;48.114;11.442;2024-02-16T03:29:00;2.57;;;2.30;;
14121;SDS011;7139;48.114;11.442;2024-02-16T03:31:29;2.90;;;2.40;;
14121;SDS011;7139;48.114;11.442;2024-02-16T03:33:58;4.03;;;2.63;;
14121;SDS011;7139;48.114;11.442;2024-02-16T03:36:25;3.67;;;2.60;;
14121;SDS011;7139;48.114;11.442;2024-02-16T03:38:52;2.93;;;2.40;;
14121;SDS011;7139;48.114;11.442;2024-02-16T03:41:20;3.20;;;2.60;;
14121;SDS011;7139;48.114;11.442;2024-02-16T03:43:48;3.83;;;2.40;;
14121;SDS011;7139;48.114;11.442;2024-02-16T03:46:15;3.90;;;2.57;;
14121;SDS011;7139;48.114;11.442;2024-02-16T03:48:43;2.70;;;2.50;;
14121;SDS011;7139;48.114;11.442;2024-02-16T03:51:10;2.80;;;2.30;;
14121;SDS011;7139;48.114;11.442;2024-02-16T03:53:38;2.90;;;2.60;;
14121;SDS011;7139;48.114;11.442;2024-02-16T03:56:05;2.80;;;2.47;;
14121;SDS011;7139;48.114;11.442;2024-02-16T03:58:32;2.80;;;2.60;;
14121;SDS011;7139;48.114;11.442;2024-02-16T04:00:59;3.27;;;2.50;;
14121;SDS011;7139;48.114;11.442;2024-02-16T04:03:27;3.13;;;2.50;;
14121;SDS011;7139;48.114;11.442;2024-02-16T04:05:55;2.60;;;2.10;;
14121;SDS011;7139;48.114;11.442;2024-02-16T04:08:24;2.80;;;2.40;;
14121;SDS011;7139;48.114;11.442;2024-02-16T04:10:51;3.17;;;1.90;;
14121;SDS011;7139;48.114;11.442;2024-02-16T04:13:18;2.40;;;2.20;;
14121;SDS011;7139;48.114;11.442;2024-02-16T04:15:45;2.70;;;2.33;;
14121;SDS011;7139;48.114;11.442;2024-02-16T04:18:12;2.80;;;2.57;;
14121;SDS011;7139;48.114;11.442;2024-02-16T04:20:40;2.90;;;2.70;;
14121;SDS011;7139;48.114;11.442;2024-02-16T04:23:08;2.50;;;2.30;;
14121;SDS011;7139;48.114;11.442;2024-02-16T04:25:35;3.97;;;2.67;;
14121;SDS011;7139;48.114;11.442;2024-02-16T04:28:03;3.43;;;2.53;;
14121;SDS011;7139;48.114;11.442;2024-02-16T04:30:30;2.90;;;2.70;;
14121;SDS011;7139;48.114;11.442;2024-02-16T04:32:57;4.13;;;2.80;;
14121;SDS011;7139;48.114;11.442;2024-02-16T04:35:24;3.10;;;2.60;;
14121;SDS011;7139;48.114;11.442;2024-02-16T04:37:51;3.17;;;2.70;;
14121;SDS011;7139;48.114;11.442;2024-02-16T04:40:20;3.57;;;2.67;;
14121;SDS011;7139;48.114;11.442;2024-02-16T04:42:47;3.10;;;2.80;;
14121;SDS011;7139;48.114;11.442;2024-02-16T04:45:14;2.60;;;2.40;;
14121;SDS011;7139;48.114;11.442;2024-02-16T04:47:41;3.40;;;2.57;;
14121;SDS011;7139;48.114;11.442;2024-02-16T04:50:08;2.77;;;2.40;;
14121;SDS011;7139;48.114;11.442;2024-02-16T04:52:36;2.90;;;2.40;;
14121;SDS011;7139;48.114;11.442;2024-02-16T04:55:04;2.60;;;2.40;;
14121;SDS011;7139;48.114;11.442;2024-02-16T04:57:33;4.20;;;2.87;;
14121;SDS011;7139;48.114;11.442;2024-02-16T05:00:00;2.87;;;2.60;;
14121;SDS011;7139;48.114;11.442;2024-02-16T05:02:27;3.10;;;2.70;;
14121;SDS011;7139;48.114;11.442;2024-02-16T05:04:54;2.63;;;2.43;;
14121;SDS011;7139;48.114;11.442;2024-02-16T05:07:21;4.43;;;2.40;;
14121;SDS011;7139;48.114;11.442;2024-02-16T05:09:48;2.50;;;2.30;;
14121;SDS011;7139;48.114;11.442;2024-02-16T05:12:20;2.47;;;2.20;;
14121;SDS011;7139;48.114;11.442;2024-02-16T05:14:49;3.10;;;2.60;;
14121;SDS011;7139;48.114;11.442;2024-02-16T05:17:16;3.80;;;2.57;;
14121;SDS011;7139;48.114;11.442;2024-02-16T05:19:43;2.93;;;2.30;;
14121;SDS011;7139;48.114;11.442;2024-02-16T05:22:10;2.50;;;2.30;;
14121;SDS011;7139;48.114;11.442;2024-02-16T05:24:37;3.03;;;2.37;;
14121;SDS011;7139;48.114;11.442;2024-02-16T05:27:04;2.60;;;2.40;;
14121;SDS011;7139;48.114;11.442;2024-02-16T05:29:31;2.43;;;2.23;;
14121;SDS011;7139;48.114;11.442;2024-02-16T05:32:00;2.93;;;2.63;;
14121;SDS011;7139;48.114;11.442;2024-02-16T05:34:27;2.20;;;2.00;;
14121;SDS011;7139;48.114;11.442;2024-02-16T05:36:57;4.47;;;2.37;;
14121;SDS011;7139;48.114;11.442;2024-02-16T05:39:26;3.30;;;2.20;;
14121;SDS011;7139;48.114;11.442;2024-02-16T05:41:56;3.43;;;2.27;;
14121;SDS011;7139;48.114;11.442;2024-02-16T05:44:23;3.53;;;2.40;;
14121;SDS011;7139;48.114;11.442;2024-02-16T05:46:50;3.60;;;2.13;;
14121;SDS011;7139;48.114;11.442;2024-02-16T05:49:19;4.13;;;2.40;;
14121;SDS011;7139;48.114;11.442;2024-02-16T05:51:46;2.87;;;2.30;;
14121;SDS011;7139;48.114;11.442;2024-02-16T05:54:42;4.97;;;2.50;;
14121;SDS011;7139;48.114;11.442;2024-02-16T05:57:09;3.90;;;2.30;;
14121;SDS011;7139;48.114;11.442;2024-02-16T05:59:37;5.30;;;2.30;;
14121;SDS011;7139;48.114;11.442;2024-02-16T06:02:04;2.60;;;2.40;;
14121;SDS011;7139;48.114;11.442;2024-02-16T06:04:33;2.20;;;2.00;;
14121;SDS011;7139;48.114;11.442;2024-02-16T06:07:01;4.90;;;2.40;;
14121;SDS011;7139;48.114;11.442;2024-02-16T06:09:28;3.43;;;2.40;;
14121;SDS011;7139;48.114;11.442;2024-02-16T06:12:00;2.97;;;2.30;;
14121;SDS011;7139;48.114;11.442;2024-02-16T06:14:28;2.53;;;2.00;;
14121;SDS011;7139;48.114;11.442;2024-02-16T06:16:55;2.93;;;2.37;;
14121;SDS011;7139;48.114;11.442;2024-02-16T06:19:41;4.70;;;2.70;;
14121;SDS011;7139;48.114;11.442;2024-02-16T06:22:08;2.80;;;2.30;;
14121;SDS011;7139;48.114;11.442;2024-02-16T06:24:35;3.40;;;2.80;;
14121;SDS011;7139;48.114;11.442;2024-02-16T06:27:02;3.43;;;2.47;;
14121;SDS011;7139;48.114;11.442;2024-02-16T06:29:30;3.13;;;2.23;;
14121;SDS011;7139;48.114;11.442;2024-02-16T06:31:57;3.97;;;2.30;;
14121;SDS011;7139;48.114;11.442;2024-02-16T06:34:24;3.00;;;2.70;;
14121;SDS011;7139;48.114;11.442;2024-02-16T06:36:52;3.00;;;2.23;;
14121;SDS011;7139;48.114;11.442;2024-02-16T06:39:19;3.33;;;2.63;;
14121;SDS011;7139;48.114;11.442;2024-02-16T06:41:46;3.80;;;2.70;;
14121;SDS011;7139;48.114;11.442;2024-02-16T06:44:14;3.10;;;2.50;;
14121;SDS011;7139;48.114;11.442;2024-02-16T06:46:42;2.57;;;2.33;;
14121;SDS011;7139;48.114;11.442;2024-02-16T06:49:09;3.13;;;2.83;;
14121;SDS011;7139;48.114;11.442;2024-02-16T06:51:36;2.80;;;2.60;;
14121;SDS011;7139;48.114;11.442;2024-02-16T06:54:05;3.63;;;2.47;;
14121;SDS011;7139;48.114;11.442;2024-02-16T06:56:32;3.47;;;2.80;;
14121;SDS011;7139;48.114;11.442;2024-02-16T06:59:00;4.63;;;2.67;;
14121;SDS011;7139;48.114;11.442;2024-02-16T07:01:27;3.40;;;2.77;;
14121;SDS011;7139;48.114;11.442;2024-02-16T07:03:55;3.17;;;2.87;;
14121;SDS011;7139;48.114;11.442;2024-02-16T07:06:22;2.93;;;2.70;;
14121;SDS011;7139;48.114;11.442;2024-02-16T07:08:49;5.10;;;2.83;;
14121;SDS011;7139;48.114;11.442;2024-02-16T07:11:17;5.07;;;2.90;;
14121;SDS011;7139;48.114;11.442;2024-02-16T07:13:45;3.40;;;2.70;;
14121;SDS011;7139;48.114;11.442;2024-02-16T07:16:13;3.43;;;2.80;;
14121;SDS011;7139;48.114;11.442;2024-02-16T07:18:40;4.13;;;2.83;;
14121;SDS011;7139;48.114;11.442;2024-02-16T07:21:08;3.57;;;2.70;;
14121;SDS011;7139;48.114;11.442;2024-02-16T07:23:35;3.13;;;2.83;;
14121;SDS011;7139;48.114;11.442;2024-02-16T07:26:03;3.90;;;2.60;;
14121;SDS011;7139;48.114;11.442;2024-02-16T07:28:31;4.07;;;3.07;;
14121;SDS011;7139;48.114;11.442;2024-02-16T07:30:58;8.70;;;3.60;;
14121;SDS011;7139;48.114;11.442;2024-02-16T07:33:26;8.10;;;3.07;;
14121;SDS011;7139;48.114;11.442;2024-02-16T07:35:53;10.80;;;3.33;;
14121;SDS011;7139;48.114;11.442;2024-02-16T07:38:21;20.43;;;4.23;;
14121;SDS011;7139;48.114;11.442;2024-02-16T07:40:48;14.57;;;3.90;;
14121;SDS011;7139;48.114;11.442;2024-02-16T07:43:15;18.93;;;3.70;;
14121;SDS011;7139;48.114;11.442;2024-02-16T07:45:44;14.03;;;3.97;;
14121;SDS011;7139;48.114;11.442;2024-02-16T07:48:11;15.47;;;3.80;;
14121;SDS011;7139;48.114;11.442;2024-02-16T07:50:39;18.63;;;3.90;;
14121;SDS011;7139;48.114;11.442;2024-02-16T07:53:06;15.93;;;3.83;;
14121;SDS011;7139;48.114;11.442;2024-02-16T07:55:34;13.03;;;3.23;;
14121;SDS011;7139;48.114;11.442;2024-02-16T07:58:02;6.37;;;3.57;;
14121;SDS011;7139;48.114;11.442;2024-02-16T08:00:29;3.80;;;2.93;;
14121;SDS011;7139;48.114;11.442;2024-02-16T08:02:57;9.10;;;3.27;;
14121;SDS011;7139;48.114;11.442;2024-02-16T08:05:24;5.27;;;2.80;;
14121;SDS011;7139;48.114;11.442;2024-02-16T08:07:52;6.10;;;2.90;;
14121;SDS011;7139;48.114;11.442;2024-02-16T08:10:19;3.50;;;2.97;;
14121;SDS011;7139;48.114;11.442;2024-02-16T08:12:47;7.90;;;3.20;;
14121;SDS011;7139;48.114;11.442;2024-02-16T08:15:14;5.97;;;2.93;;
14121;SDS011;7139;48.114;11.442;2024-02-16T08:17:47;5.23;;;3.23;;
14121;SDS011;7139;48.114;11.442;2024-02-16T08:20:16;4.13;;;3.23;;
14121;SDS011;7139;48.114;11.442;2024-02-16T08:22:43;7.13;;;3.17;;
14121;SDS011;7139;48.114;11.442;2024-02-16T08:25:10;4.33;;;2.80;;
14121;SDS011;7139;48.114;11.442;2024-02-16T08:27:37;4.73;;;3.10;;
14121;SDS011;7139;48.114;11.442;2024-02-16T08:30:04;3.83;;;2.67;;
14121;SDS011;7139;48.114;11.442;2024-02-16T08:32:34;4.03;;;2.77;;
14121;SDS011;7139;48.114;11.442;2024-02-16T08:35:01;3.87;;;2.70;;
14121;SDS011;7139;48.114;11.442;2024-02-16T08:37:29;4.30;;;2.43;;
14121;SDS011;7139;48.114;11.442;2024-02-16T08:39:56;6.77;;;2.40;;
14121;SDS011;7139;48.114;11.442;2024-02-16T08:42:23;3.30;;;2.07;;
14121;SDS011;7139;48.114;11.442;2024-02-16T08:44:50;4.53;;;2.10;;
14121;SDS011;7139;48.114;11.442;2024-02-16T08:47:17;4.03;;;2.10;;
14121;SDS011;7139;48.114;11.442;2024-02-16T08:49:45;6.00;;;2.30;;
14121;SDS011;7139;48.114;11.442;2024-02-16T08:52:12;4.00;;;2.10;;
14121;SDS011;7139;48.114;11.442;2024-02-16T08:54:40;3.90;;;2.10;;
14121;SDS011;7139;48.114;11.442;2024-02-16T08:57:09;3.07;;;2.00;;
14121;SDS011;7139;48.114;11.442;2024-02-16T08:59:36;4.30;;;2.00;;
14121;SDS011;7139;48.114;11.442;2024-02-16T09:02:03;7.60;;;5.47;;
14121;SDS011;7139;48.114;11.442;2024-02-16T09:04:31;2.50;;;2.10;;
14121;SDS011;7139;48.114;11.442;2024-02-16T09:06:58;3.53;;;2.00;;
14121;SDS011;7139;48.114;11.442;2024-02-16T09:09:25;4.00;;;2.10;;
14121;SDS011;7139;48.114;11.442;2024-02-16T09:11:54;4.77;;;2.10;;
14121;SDS011;7139;48.114;11.442;2024-02-16T09:14:22;3.23;;;1.80;;
14121;SDS011;7139;48.114;11.442;2024-02-16T09:16:49;3.57;;;2.93;;
14121;SDS011;7139;48.114;11.442;2024-02-16T09:19:17;2.73;;;2.03;;
14121;SDS011;7139;48.114;11.442;2024-02-16T09:21:45;3.10;;;2.10;;
14121;SDS011;7139;48.114;11.442;2024-02-16T09:24:12;3.77;;;2.00;;
14121;SDS011;7139;48.114;11.442;2024-02-16T09:26:42;10.23;;;2.40;;
14121;SDS011;7139;48.114;11.442;2024-02-16T09:29:12;8.90;;;2.80;;
14121;SDS011;7139;48.114;11.442;2024-02-16T09:31:39;9.30;;;2.93;;
14121;SDS011;7139;48.114;11.442;2024-02-16T09:34:06;2.77;;;2.10;;
14121;SDS011;7139;48.114;11.442;2024-02-16T09:36:34;5.57;;;2.10;;
14121;SDS011;7139;48.114;11.442;2024-02-16T09:39:02;3.90;;;2.10;;
14121;SDS011;7139;48.114;11.442;2024-02-16T09:41:29;4.30;;;1.90;;
14121;SDS011;7139;48.114;11.442;2024-02-16T09:43:57;3.50;;;1.70;;
14121;SDS011;7139;48.114;11.442;2024-02-16T09:46:25;2.77;;;1.80;;
14121;SDS011;7139;48.114;11.442;2024-02-16T09:48:53;3.17;;;2.00;;
14121;SDS011;7139;48.114;11.442;2024-02-16T09:51:21;2.97;;;1.80;;
14121;SDS011;7139;48.114;11.442;2024-02-16T09:53:49;1.70;;;1.60;;
14121;SDS011;7139;48.114;11.442;2024-02-16T09:56:18;1.83;;;1.50;;
14121;SDS011;7139;48.114;11.442;2024-02-16T09:58:45;1.77;;;1.43;;
14121;SDS011;7139;48.114;11.442;2024-02-16T10:01:17;4.10;;;1.80;;
14121;SDS011;7139;48.114;11.442;2024-02-16T10:03:46;1.60;;;1.50;;
14121;SDS011;7139;48.114;11.442;2024-02-16T10:06:14;1.70;;;1.60;;
14121;SDS011;7139;48.114;11.442;2024-02-16T10:08:47;2.30;;;1.73;;
14121;SDS011;7139;48.114;11.442;2024-02-16T10:11:15;2.20;;;1.80;;
14121;SDS011;7139;48.114;11.442;2024-02-16T10:13:44;1.77;;;1.60;;
14121;SDS011;7139;48.114;11.442;2024-02-16T10:16:20;1.87;;;1.70;;
14121;SDS011;7139;48.114;11.442;2024-02-16T10:18:48;2.27;;;1.63;;
14121;SDS011;7139;48.114;11.442;2024-02-16T10:21:23;2.40;;;1.60;;
14121;SDS011;7139;48.114;11.442;2024-02-16T10:24:00;2.43;;;1.90;;
14121;SDS011;7139;48.114;11.442;2024-02-16T10:26:27;2.43;;;1.50;;
14121;SDS011;7139;48.114;11.442;2024-02-16T10:28:55;2.90;;;1.57;;
14121;SDS011;7139;48.114;11.442;2024-02-16T10:31:23;1.83;;;1.67;;
14121;SDS011;7139;48.114;11.442;2024-02-16T10:33:57;1.67;;;1.50;;
14121;SDS011;7139;48.114;11.442;2024-02-16T10:36:25;2.23;;;1.53;;
14121;SDS011;7139;48.114;11.442;2024-02-16T10:38:53;1.83;;;1.47;;
14121;SDS011;7139;48.114;11.442;2024-02-16T10:41:21;1.60;;;1.50;;
14121;SDS011;7139;48.114;11.442;2024-02-16T10:43:49;1.67;;;1.57;;
14121;SDS011;7139;48.114;11.442;2024-02-16T10:46:16;2.30;;;1.63;;
14121;SDS011;7139;48.114;11.442;2024-02-16T10:48:45;1.60;;;1.50;;
14121;SDS011;7139;48.114;11.442;2024-02-16T10:51:13;4.13;;;2.10;;
14121;SDS011;7139;48.114;11.442;2024-02-16T10:53:42;2.47;;;2.00;;
14121;SDS011;7139;48.114;11.442;2024-02-16T10:56:09;1.40;;;1.30;;
14121;SDS011;7139;48.114;11.442;2024-02-16T10:58:36;4.50;;;1.67;;
14121;SDS011;7139;48.114;11.442;2024-02-16T11:01:07;2.20;;;1.60;;
14121;SDS011;7139;48.114;11.442;2024-02-16T11:03:37;2.37;;;1.70;;
14121;SDS011;7139;48.114;11.442;2024-02-16T11:06:11;3.53;;;1.50;;
14121;SDS011;7139;48.114;11.442;2024-02-16T11:09:00;1.70;;;1.50;;
14121;SDS011;7139;48.114;11.442;2024-02-16T11:11:32;2.23;;;1.70;;
14121;SDS011;7139;48.114;11.442;2024-02-16T11:14:14;2.13;;;1.70;;
14121;SDS011;7139;48.114;11.442;2024-02-16T11:16:45;4.83;;;1.77;;
14121;SDS011;7139;48.114;11.442;2024-02-16T11:19:12;1.67;;;1.57;;
14121;SDS011;7139;48.114;11.442;2024-02-16T11:21:54;5.30;;;1.80;;
14121;SDS011;7139;48.114;11.442;2024-02-16T11:24:28;2.33;;;1.80;;
14121;SDS011;7139;48.114;11.442;2024-02-16T11:26:56;1.93;;;1.70;;
14121;SDS011;7139;48.114;11.442;2024-02-16T11:29:25;2.30;;;1.60;;
14121;SDS011;7139;48.114;11.442;2024-02-16T11:31:52;2.10;;;1.90;;
14121;SDS011;7139;48.114;11.442;2024-02-16T11:34:22;2.70;;;1.80;;
14121;SDS011;7139;48.114;11.442;2024-02-16T11:36:51;2.13;;;1.73;;
14121;SDS011;7139;48.114;11.442;2024-02-16T11:39:19;2.20;;;1.80;;
14121;SDS011;7139;48.114;11.442;2024-02-16T11:41:48;2.73;;;1.70;;
14121;SDS011;7139;48.114;11.442;2024-02-16T11:44:15;2.27;;;1.70;;
14121;SDS011;7139;48.114;11.442;2024-02-16T11:46:42;2.37;;;1.60;;
14121;SDS011;7139;48.114;11.442;2024-02-16T11:49:09;2.30;;;1.73;;
14121;SDS011;7139;48.114;11.442;2024-02-16T11:51:37;1.73;;;1.63;;
14121;SDS011;7139;48.114;11.442;2024-02-16T11:54:04;3.40;;;1.63;;
14121;SDS011;7139;48.114;11.442;2024-02-16T11:56:32;3.27;;;1.90;;
14121;SDS011;7139;48.114;11.442;2024-02-16T11:59:00;3.73;;;1.90;;
14121;SDS011;7139;48.114;11.442;2024-02-16T12:01:27;1.90;;;1.70;;
14121;SDS011;7139;48.114;11.442;2024-02-16T12:03:54;2.17;;;1.70;;
14121;SDS011;7139;48.114;11.442;2024-02-16T12:06:21;3.40;;;2.00;;
14121;SDS011;7139;48.114;11.442;2024-02-16T12:08:49;2.53;;;1.70;;
14121;SDS011;7139;48.114;11.442;2024-02-16T12:11:18;1.80;;;1.70;;
14121;SDS011;7139;48.114;11.442;2024-02-16T12:13:45;2.10;;;1.70;;
14121;SDS011;7139;48.114;11.442;2024-02-16T12:16:13;2.27;;;1.73;;
14121;SDS011;7139;48.114;11.442;2024-02-16T12:18:43;3.20;;;1.50;;
14121;SDS011;7139;48.114;11.442;2024-02-16T12:21:11;3.00;;;1.70;;
14121;SDS011;7139;48.114;11.442;2024-02-16T12:23:38;4.97;;;1.97;;
14121;SDS011;7139;48.114;11.442;2024-02-16T12:26:05;2.70;;;1.80;;
14121;SDS011;7139;48.114;11.442;2024-02-16T12:28:32;4.60;;;1.60;;
14121;SDS011;7139;48.114;11.442;2024-02-16T12:31:01;2.13;;;1.90;;
14121;SDS011;7139;48.114;11.442;2024-02-16T12:33:29;1.93;;;1.70;;
14121;SDS011;7139;48.114;11.442;2024-02-16T12:35:56;2.60;;;1.67;;
14121;SDS011;7139;48.114;11.442;2024-02-16T12:38:25;2.27;;;1.60;;
14121;SDS011;7139;48.114;11.442;2024-02-16T12:40:52;2.63;;;1.73;;
14121;SDS011;7139;48.114;11.442;2024-02-16T12:43:19;1.97;;;1.50;;
14121;SDS011;7139;48.114;11.442;2024-02-16T12:45:46;3.93;;;1.60;;
14121;SDS011;7139;48.114;11.442;2024-02-16T12:48:13;2.60;;;1.63;;
14121;SDS011;7139;48.114;11.442;2024-02-16T12:50:42;2.63;;;1.70;;
14121;SDS011;7139;48.114;11.442;2024-02-16T12:53:09;4.10;;;1.77;;
14121;SDS011;7139;48.114;11.442;2024-02-16T12:55:36;1.80;;;1.50;;
14121;SDS011;7139;48.114;11.442;2024-02-16T12:58:04;5.67;;;1.87;;
14121;SDS011;7139;48.114;11.442;2024-02-16T13:00:31;2.50;;;1.50;;
14121;SDS011;7139;48.114;11.442;2024-02-16T13:02:58;3.27;;;1.60;;
14121;SDS011;7139;48.114;11.442;2024-02-16T13:05:25;8.77;;;7.30;;
14121;SDS011;7139;48.114;11.442;2024-02-16T13:07:53;6.70;;;5.90;;
14121;SDS011;7139;48.114;11.442;2024-02-16T13:10:20;4.63;;;3.43;;
14121;SDS011;7139;48.114;11.442;2024-02-16T13:12:47;2.07;;;1.50;;
14121;SDS011;7139;48.114;11.442;2024-02-16T13:15:15;4.70;;;1.63;;
14121;SDS011;7139;48.114;11.442;2024-02-16T13:17:42;3.13;;;1.67;;
14121;SDS011;7139;48.114;11.442;2024-02-16T13:20:09;2.37;;;1.73;;
14121;SDS011;7139;48.114;11.442;2024-02-16T13:22:36;2.00;;;1.80;;
14121;SDS011;7139;48.114;11.442;2024-02-16T13:25:05;3.40;;;1.80;;
14121;SDS011;7139;48.114;11.442;2024-02-16T13:27:32;3.50;;;1.80;;
14121;SDS011;7139;48.114;11.442;2024-02-16T13:29:59;3.93;;;1.60;;
14121;SDS011;7139;48.114;11.442;2024-02-16T13:32:26;3.67;;;1.70;;
14121;SDS011;7139;48.114;11.442;2024-02-16T13:34:53;3.17;;;1.80;;
14121;SDS011;7139;48.114;11.442;2024-02-16T13:37:20;2.83;;;1.77;;
14121;SDS011;7139;48.114;11.442;2024-02-16T13:39:48;3.10;;;2.20;;
14121;SDS011;7139;48.114;11.442;2024-02-16T13:42:17;2.90;;;1.50;;
14121;SDS011;7139;48.114;11.442;2024-02-16T13:44:44;2.60;;;2.00;;
14121;SDS011;7139;48.114;11.442;2024-02-16T13:47:12;2.87;;;2.13;;
14121;SDS011;7139;48.114;11.442;2024-02-16T13:49:39;3.33;;;2.13;;
14121;SDS011;7139;48.114;11.442;2024-02-16T13:52:06;3.17;;;1.90;;
14121;SDS011;7139;48.114;11.442;2024-02-16T13:54:33;5.13;;;2.10;;
14121;SDS011;7139;48.114;11.442;2024-02-16T13:57:01;3.47;;;2.30;;
14121;SDS011;7139;48.114;11.442;2024-02-16T13:59:29;3.20;;;2.20;;
14121;SDS011;7139;48.114;11.442;2024-02-16T14:01:58;3.23;;;2.10;;
14121;SDS011;7139;48.114;11.442;2024-02-16T14:04:25;3.27;;;2.07;;
14121;SDS011;7139;48.114;11.442;2024-02-16T14:06:52;4.23;;;2.23;;
14121;SDS011;7139;48.114;11.442;2024-02-16T14:09:19;4.37;;;2.70;;
14121;SDS011;7139;48.114;11.442;2024-02-16T14:11:46;5.10;;;2.80;;
14121;SDS011;7139;48.114;11.442;2024-02-16T14:14:14;4.43;;;2.80;;
14121;SDS011;7139;48.114;11.442;2024-02-16T14:16:42;3.90;;;2.90;;
14121;SDS011;7139;48.114;11.442;2024-02-16T14:19:11;5.50;;;2.40;;
14121;SDS011;7139;48.114;11.442;2024-02-16T14:21:39;2.60;;;2.30;;
14121;SDS011;7139;48.114;11.442;2024-02-16T14:24:06;3.13;;;2.43;;
14121;SDS011;7139;48.114;11.442;2024-02-16T14:26:35;2.77;;;2.20;;
14121;SDS011;7139;48.114;11.442;2024-02-16T14:29:02;3.60;;;2.27;;
14121;SDS011;7139;48.114;11.442;2024-02-16T14:31:29;3.90;;;2.07;;
14121;SDS011;7139;48.114;11.442;2024-02-16T14:34:01;4.47;;;2.13;;
14121;SDS011;7139;48.114;11.442;2024-02-16T14:36:28;4.97;;;2.40;;
14121;SDS011;7139;48.114;11.442;2024-02-16T14:38:55;4.17;;;1.90;;
14121;SDS011;7139;48.114;11.442;2024-02-16T14:41:23;3.57;;;2.33;;
14121;SDS011;7139;48.114;11.442;2024-02-16T14:43:50;3.40;;;2.20;;
14121;SDS011;7139;48.114;11.442;2024-02-16T14:46:17;3.97;;;2.43;;
14121;SDS011;7139;48.114;11.442;2024-02-16T14:48:45;3.03;;;2.20;;
14121;SDS011;7139;48.114;11.442;2024-02-16T14:51:14;2.13;;;1.93;;